Time;durP1;ratioP1;P1;durP2;ratioP2;P2;SDS_P1;SDS_P2;PMS_P1;PMS_P2;Temp;Humidity;BMP_temperature;BMP_pressure;BME280_temperature;BME280_humidity;BME280_pressure;Samples;Min_cycle;Max_cycle;Signal;HPM_P1;HPM_P2
2022/04/20 00:02:19;;;;;;;25.27;18.50;;;11.60;66.30;;;;;;4893629;29;20059;-81
2022/04/20 00:04:46;;;;;;;25.52;17.27;;;11.60;66.40;;;;;;4886415;29;20499;-81
2022/04/20 00:07:13;;;;;;;25.30;17.38;;;11.50;66.40;;;;;;4886292;29;20053;-81
2022/04/20 00:09:40;;;;;;;28.48;17.33;;;11.50;66.50;;;;;;4885829;29;20044;-81
2022/04/20 00:12:08;;;;;;;24.73;16.60;;;11.50;66.50;;;;;;4883750;29;20423;-80
2022/04/20 00:14:35;;;;;;;24.48;17.48;;;11.50;66.50;;;;;;4881768;29;20106;-80
2022/04/20 00:17:02;;;;;;;25.48;17.52;;;11.50;66.60;;;;;;4884791;29;20057;-81
2022/04/20 00:19:29;;;;;;;24.88;17.88;;;11.40;66.60;;;;;;4886201;29;20053;-82
2022/04/20 00:21:56;;;;;;;27.38;17.55;;;11.40;66.60;;;;;;4885813;29;20052;-81
2022/04/20 00:24:23;;;;;;;28.88;18.35;;;11.40;66.70;;;;;;4890631;29;20048;-81
2022/04/20 00:26:49;;;;;;;24.85;17.42;;;11.40;66.70;;;;;;4887944;29;20084;-82
2022/04/20 00:29:16;;;;;;;23.75;17.33;;;11.40;66.80;;;;;;4889170;29;20053;-82
2022/04/20 00:31:43;;;;;;;24.05;17.00;;;11.40;66.80;;;;;;4892340;29;20053;-81
2022/04/20 00:34:10;;;;;;;30.48;17.88;;;11.30;66.80;;;;;;4892168;29;20057;-81
2022/04/20 00:36:37;;;;;;;24.48;17.40;;;11.30;66.90;;;;;;4892223;29;20097;-81
2022/04/20 00:39:04;;;;;;;29.08;18.88;;;11.30;66.90;;;;;;4889098;29;20104;-81
2022/04/20 00:41:31;;;;;;;25.38;18.20;;;11.20;66.90;;;;;;4887794;29;20097;-81
2022/04/20 00:43:59;;;;;;;27.27;18.27;;;11.20;67.00;;;;;;4891278;29;20578;-81
2022/04/20 00:46:27;;;;;;;24.60;17.50;;;11.20;67.00;;;;;;4892076;29;20052;-80
2022/04/20 00:48:55;;;;;;;25.05;17.63;;;11.20;67.00;;;;;;4892197;29;20071;-81
2022/04/20 00:51:22;;;;;;;26.08;18.23;;;11.20;67.10;;;;;;4891627;29;20045;-80
2022/04/20 00:53:49;;;;;;;22.23;17.25;;;11.20;67.10;;;;;;4887441;29;20049;-82
2022/04/20 00:56:15;;;;;;;27.75;18.35;;;11.10;67.20;;;;;;4889112;29;20053;-80
2022/04/20 00:58:44;;;;;;;27.30;18.25;;;11.10;67.20;;;;;;4891835;29;20108;-80
2022/04/20 01:01:11;;;;;;;29.73;18.45;;;11.10;67.30;;;;;;4891916;29;20049;-82
2022/04/20 01:03:37;;;;;;;26.27;18.38;;;11.10;67.30;;;;;;4891974;29;20040;-82
2022/04/20 01:06:06;;;;;;;24.40;16.65;;;11.00;67.30;;;;;;4889324;29;20167;-81
2022/04/20 01:08:33;;;;;;;26.83;17.30;;;11.00;67.30;;;;;;4887294;29;20057;-80
2022/04/20 01:11:00;;;;;;;27.27;17.38;;;11.00;67.40;;;;;;4890736;29;20049;-81
2022/04/20 01:13:27;;;;;;;24.55;17.52;;;10.90;67.40;;;;;;4891773;29;20065;-81
2022/04/20 01:15:54;;;;;;;24.20;18.02;;;10.90;67.40;;;;;;4891825;29;20045;-82
2022/04/20 01:18:21;;;;;;;24.85;18.45;;;10.90;67.40;;;;;;4891327;29;20087;-81
2022/04/20 01:20:48;;;;;;;23.42;16.83;;;10.90;67.50;;;;;;4887329;29;20096;-81
2022/04/20 01:23:15;;;;;;;23.23;16.90;;;10.90;67.50;;;;;;4888879;29;20089;-81
2022/04/20 01:25:42;;;;;;;25.77;18.70;;;10.90;67.50;;;;;;4891866;29;20179;-80
2022/04/20 01:28:09;;;;;;;23.83;17.35;;;10.80;67.50;;;;;;4891718;29;20052;-81
2022/04/20 01:30:36;;;;;;;26.60;17.45;;;10.90;67.50;;;;;;4891688;29;20048;-81
2022/04/20 01:33:03;;;;;;;22.55;16.77;;;10.80;67.50;;;;;;4888967;29;20055;-80
2022/04/20 01:35:30;;;;;;;27.23;18.42;;;10.80;67.50;;;;;;4883772;29;20105;-81
2022/04/20 01:37:57;;;;;;;28.08;18.17;;;10.80;67.60;;;;;;4887928;29;20459;-80
2022/04/20 01:40:24;;;;;;;24.75;19.00;;;10.70;67.60;;;;;;4888572;29;20451;-80
2022/04/20 01:42:51;;;;;;;21.85;17.38;;;10.70;67.60;;;;;;4888743;29;20048;-81
2022/04/20 01:45:18;;;;;;;23.77;16.65;;;10.70;67.60;;;;;;4887634;29;20470;-81
2022/04/20 01:47:45;;;;;;;25.23;18.17;;;10.70;67.60;;;;;;4883976;29;20490;-80
2022/04/20 01:50:12;;;;;;;27.65;18.52;;;10.60;67.70;;;;;;4885795;29;20077;-80
2022/04/20 01:52:38;;;;;;;24.58;17.20;;;10.60;67.70;;;;;;4888519;29;20105;-81
2022/04/20 01:55:06;;;;;;;23.70;16.35;;;10.60;67.70;;;;;;4888747;29;20041;-80
2022/04/20 01:57:33;;;;;;;26.30;17.30;;;10.50;67.70;;;;;;4888286;29;20478;-81
2022/04/20 02:00:00;;;;;;;24.90;17.13;;;10.50;67.70;;;;;;4884919;29;20044;-80
2022/04/20 02:02:38;;;;;;;24.38;18.00;;;10.50;67.80;;;;;;4884214;29;20053;-80
2022/04/20 02:05:08;;;;;;;24.05;17.48;;;10.40;67.80;;;;;;4886429;29;20060;-80
2022/04/20 02:07:35;;;;;;;21.30;16.92;;;10.40;67.80;;;;;;4888332;29;20089;-80
2022/04/20 02:10:04;;;;;;;23.20;17.30;;;10.40;67.90;;;;;;4888185;29;20065;-81
2022/04/20 02:12:31;;;;;;;22.38;17.45;;;10.40;67.90;;;;;;4888040;29;20060;-80
2022/04/20 02:14:58;;;;;;;22.63;16.30;;;10.40;68.00;;;;;;4884703;29;20052;-81
2022/04/20 02:17:25;;;;;;;21.35;17.42;;;10.40;68.00;;;;;;4883722;29;20056;-81
2022/04/20 02:19:57;;;;;;;24.63;17.05;;;10.30;68.10;;;;;;4887228;29;20134;-80
2022/04/20 02:22:24;;;;;;;23.58;16.70;;;10.30;68.10;;;;;;4887925;29;20109;-80
2022/04/20 02:24:51;;;;;;;22.92;16.95;;;10.30;68.10;;;;;;4887963;29;20526;-80
2022/04/20 02:27:17;;;;;;;25.10;16.92;;;10.20;68.20;;;;;;4886845;29;20044;-80
2022/04/20 02:29:46;;;;;;;22.95;16.85;;;10.30;68.20;;;;;;4883561;29;20056;-80
2022/04/20 02:32:13;;;;;;;21.52;16.63;;;10.20;68.30;;;;;;4885282;29;20057;-80
2022/04/20 02:34:40;;;;;;;22.80;16.40;;;10.20;68.30;;;;;;4887315;29;20057;-80
2022/04/20 02:37:07;;;;;;;22.85;17.25;;;10.20;68.40;;;;;;4887805;29;20053;-80
2022/04/20 02:39:36;;;;;;;21.13;16.63;;;10.10;68.40;;;;;;4887578;29;20097;-80
2022/04/20 02:42:05;;;;;;;24.55;17.08;;;10.10;68.40;;;;;;4884624;29;20056;-80
2022/04/20 02:44:32;;;;;;;21.63;15.70;;;10.10;68.50;;;;;;4883301;29;20122;-81
2022/04/20 02:46:59;;;;;;;22.17;16.38;;;10.10;68.50;;;;;;4886304;29;20056;-81
2022/04/20 02:49:26;;;;;;;23.20;16.45;;;10.00;68.50;;;;;;4887374;29;20490;-80
2022/04/20 02:51:53;;;;;;;22.92;16.52;;;10.00;68.60;;;;;;4887424;29;20105;-80
2022/04/20 02:54:19;;;;;;;24.40;16.88;;;10.00;68.60;;;;;;4886697;29;20101;-80
2022/04/20 02:56:47;;;;;;;23.38;17.73;;;10.00;68.60;;;;;;4882845;29;20119;-82
2022/04/20 02:59:14;;;;;;;24.75;16.83;;;9.90;68.70;;;;;;4884455;29;20057;-81
2022/04/20 03:01:41;;;;;;;24.67;16.92;;;10.00;68.70;;;;;;4887268;29;20109;-81
2022/04/20 03:04:08;;;;;;;22.00;17.05;;;9.90;68.80;;;;;;4886918;29;20080;-81
2022/04/20 03:06:35;;;;;;;19.80;16.40;;;9.90;68.80;;;;;;4887219;29;20048;-81
2022/04/20 03:09:03;;;;;;;21.83;17.63;;;9.90;68.90;;;;;;4884104;29;20048;-81
2022/04/20 03:11:30;;;;;;;21.27;16.65;;;9.90;68.90;;;;;;4882761;29;20105;-81
2022/04/20 03:13:57;;;;;;;22.75;17.55;;;9.90;68.90;;;;;;4897077;29;20514;-80
2022/04/20 03:16:25;;;;;;;22.58;16.58;;;9.90;69.00;;;;;;4890146;29;20048;-80
2022/04/20 03:18:52;;;;;;;23.05;17.75;;;9.90;69.00;;;;;;4886634;29;20052;-80
2022/04/20 03:21:18;;;;;;;22.10;17.58;;;9.90;69.00;;;;;;4886055;29;20391;-80
2022/04/20 03:23:45;;;;;;;23.88;17.15;;;9.80;69.10;;;;;;4882425;29;20502;-81
2022/04/20 03:26:12;;;;;;;26.73;17.55;;;9.80;69.10;;;;;;4884407;29;20052;-80
2022/04/20 03:28:39;;;;;;;21.73;16.77;;;9.80;69.10;;;;;;4886763;29;20056;-80
2022/04/20 03:31:06;;;;;;;23.92;16.50;;;9.80;69.10;;;;;;4886674;29;20506;-80
2022/04/20 03:33:33;;;;;;;22.60;16.88;;;9.70;69.20;;;;;;4886558;29;20052;-81
2022/04/20 03:36:00;;;;;;;23.65;18.08;;;9.70;69.20;;;;;;4883209;29;20044;-80
2022/04/20 03:38:27;;;;;;;22.35;17.23;;;9.70;69.20;;;;;;4882319;29;20467;-80
2022/04/20 03:40:54;;;;;;;24.65;17.38;;;9.70;69.20;;;;;;4886297;29;20068;-80
2022/04/20 03:43:21;;;;;;;26.60;17.33;;;9.70;69.20;;;;;;4886513;29;20483;-80
2022/04/20 03:45:48;;;;;;;22.63;17.55;;;9.70;69.20;;;;;;4886476;29;20467;-80
2022/04/20 03:48:15;;;;;;;25.80;17.65;;;9.70;69.20;;;;;;4885057;29;20164;-80
2022/04/20 03:50:41;;;;;;;21.98;17.88;;;9.60;69.20;;;;;;4881981;29;20108;-81
2022/04/20 03:53:08;;;;;;;21.77;17.35;;;9.60;69.30;;;;;;4884401;29;20053;-80
2022/04/20 03:55:35;;;;;;;22.45;17.08;;;9.60;69.30;;;;;;4886332;29;20057;-81
2022/04/20 03:58:02;;;;;;;23.70;18.02;;;9.60;69.30;;;;;;4885672;29;20105;-80
2022/04/20 04:00:31;;;;;;;21.88;17.23;;;9.60;69.30;;;;;;4885899;29;20117;-81
2022/04/20 04:02:58;;;;;;;21.17;17.25;;;9.50;69.30;;;;;;4882729;29;20430;-80
2022/04/20 04:05:25;;;;;;;22.73;18.23;;;9.50;69.30;;;;;;4882251;29;20057;-81
2022/04/20 04:07:52;;;;;;;23.48;16.35;;;9.50;69.30;;;;;;4885840;29;20085;-81
2022/04/20 04:10:19;;;;;;;24.45;17.88;;;9.50;69.30;;;;;;4886239;29;20605;-80
2022/04/20 04:12:46;;;;;;;24.40;18.55;;;9.50;69.30;;;;;;4886128;29;20049;-80
2022/04/20 04:15:13;;;;;;;22.20;17.45;;;9.40;69.40;;;;;;4884305;29;20108;-81
2022/04/20 04:17:40;;;;;;;21.77;17.27;;;9.40;69.40;;;;;;4881965;29;20049;-80
2022/04/20 04:20:08;;;;;;;23.73;17.25;;;9.40;69.40;;;;;;4884512;29;20057;-81
2022/04/20 04:22:36;;;;;;;22.25;17.70;;;9.40;69.40;;;;;;4886152;29;20049;-81
2022/04/20 04:25:04;;;;;;;27.30;17.83;;;9.40;69.40;;;;;;4886017;29;20053;-80
2022/04/20 04:27:31;;;;;;;21.67;16.38;;;9.40;69.50;;;;;;4886053;29;20081;-81
2022/04/20 04:30:00;;;;;;;21.88;16.58;;;9.40;69.40;;;;;;4882035;29;20045;-80
2022/04/20 04:32:27;;;;;;;22.95;16.45;;;9.40;69.50;;;;;;4881806;29;20131;-81
2022/04/20 04:34:54;;;;;;;21.13;16.15;;;9.30;69.50;;;;;;4885691;29;20404;-80
2022/04/20 04:37:20;;;;;;;21.52;16.17;;;9.30;69.50;;;;;;4885995;29;20045;-82
2022/04/20 04:39:47;;;;;;;21.25;16.00;;;9.30;69.50;;;;;;4885890;29;20049;-81
2022/04/20 04:42:14;;;;;;;22.10;16.65;;;9.20;69.50;;;;;;4884413;29;20056;-81
2022/04/20 04:44:41;;;;;;;21.75;16.55;;;9.20;69.50;;;;;;4881217;29;20188;-81
2022/04/20 04:49:53;;;;;;;19.27;15.60;;;9.20;69.50;;;;;;4885331;29;20479;-81
2022/04/20 04:52:20;;;;;;;19.77;15.98;;;9.10;69.50;;;;;;4885828;29;20117;-81
2022/04/20 04:54:47;;;;;;;20.48;16.08;;;9.20;69.50;;;;;;4885759;29;20813;-81
2022/04/20 04:57:14;;;;;;;22.35;15.80;;;9.10;69.50;;;;;;4884247;29;20052;-81
2022/04/20 04:59:41;;;;;;;18.75;15.45;;;9.10;69.60;;;;;;4880842;29;20061;-81
2022/04/20 05:02:09;;;;;;;21.17;15.45;;;9.10;69.60;;;;;;4883822;29;20053;-81
2022/04/20 05:04:37;;;;;;;19.88;15.50;;;9.00;69.60;;;;;;4885743;29;20053;-81
2022/04/20 05:07:04;;;;;;;18.27;14.65;;;9.00;69.60;;;;;;4885709;29;20072;-81
2022/04/20 05:09:31;;;;;;;21.27;14.98;;;9.00;69.60;;;;;;4886913;29;20052;-81
2022/04/20 05:11:59;;;;;;;19.05;15.05;;;9.00;69.70;;;;;;4885704;29;20107;-81
2022/04/20 05:14:25;;;;;;;19.23;15.00;;;9.00;69.70;;;;;;4884713;29;20061;-81
2022/04/20 05:16:55;;;;;;;17.67;14.68;;;8.90;69.70;;;;;;4888664;29;20053;-81
2022/04/20 05:19:22;;;;;;;21.55;14.25;;;8.90;69.70;;;;;;4889078;29;20484;-81
2022/04/20 05:21:50;;;;;;;18.23;15.15;;;8.90;69.70;;;;;;4889022;29;20053;-81
2022/04/20 05:24:16;;;;;;;21.15;14.95;;;8.90;69.80;;;;;;4887763;29;20407;-81
2022/04/20 05:26:44;;;;;;;18.33;14.90;;;8.90;69.80;;;;;;4884731;29;20094;-80
2022/04/20 05:29:12;;;;;;;19.10;15.07;;;8.90;69.80;;;;;;4886282;29;20057;-81
2022/04/20 05:31:38;;;;;;;19.13;15.13;;;8.90;69.80;;;;;;4888878;29;20060;-81
2022/04/20 05:34:06;;;;;;;18.48;15.15;;;8.90;69.90;;;;;;4888828;29;20049;-81
2022/04/20 05:41:39;;;;;;;19.27;14.63;;;8.90;69.90;;;;;;4888767;29;20446;-80
2022/04/20 05:42:05;;;;;;;17.80;14.38;;;8.90;70.00;;;;;;4885626;29;20044;-80
2022/04/20 05:44:32;;;;;;;18.90;14.57;;;8.90;70.00;;;;;;4884446;29;20057;-81
2022/04/20 05:46:59;;;;;;;16.48;13.90;;;8.90;70.10;;;;;;4887788;29;20045;-81
2022/04/20 05:49:26;;;;;;;18.63;14.30;;;8.90;70.10;;;;;;4888568;29;20060;-81
2022/04/20 05:51:53;;;;;;;21.15;15.75;;;8.90;70.20;;;;;;4888551;29;20041;-80
2022/04/20 05:54:19;;;;;;;17.30;14.00;;;8.90;70.20;;;;;;4887774;29;20057;-81
2022/04/20 05:56:46;;;;;;;17.15;13.90;;;8.90;70.30;;;;;;4883724;29;20044;-81
2022/04/20 05:59:13;;;;;;;16.60;13.75;;;8.90;70.30;;;;;;4885837;29;20060;-80
2022/04/20 06:01:40;;;;;;;17.70;14.02;;;8.90;70.40;;;;;;4888290;29;20478;-81
2022/04/20 06:04:07;;;;;;;16.85;13.60;;;8.90;70.50;;;;;;4888329;29;20151;-81
2022/04/20 06:06:34;;;;;;;18.45;14.55;;;8.90;70.50;;;;;;4888290;29;20048;-81
2022/04/20 06:09:01;;;;;;;20.73;14.25;;;8.90;70.60;;;;;;4885075;29;20912;-81
2022/04/20 06:11:30;;;;;;;17.50;13.95;;;8.90;70.60;;;;;;4883491;29;20060;-81
2022/04/20 06:13:57;;;;;;;20.58;13.20;;;8.90;70.70;;;;;;4898265;29;20053;-81
2022/04/20 06:16:24;;;;;;;19.10;13.93;;;9.00;70.80;;;;;;4891290;29;20427;-81
2022/04/20 06:18:52;;;;;;;17.60;13.52;;;9.00;70.80;;;;;;4888079;29;20132;-80
2022/04/20 06:21:19;;;;;;;17.75;13.30;;;9.00;70.90;;;;;;4886479;29;20430;-81
2022/04/20 06:23:46;;;;;;;17.67;13.27;;;9.00;71.00;;;;;;4883675;29;20116;-80
2022/04/20 06:26:13;;;;;;;15.98;12.95;;;9.10;71.00;;;;;;4885225;29;20117;-81
2022/04/20 06:28:40;;;;;;;16.17;12.77;;;9.10;71.10;;;;;;4897411;29;20128;-81
2022/04/20 06:31:07;;;;;;;16.98;13.23;;;9.10;71.10;;;;;;4893246;29;20506;-81
2022/04/20 06:33:34;;;;;;;16.83;12.45;;;9.20;71.10;;;;;;4887842;29;20052;-80
2022/04/20 06:36:01;;;;;;;14.75;12.38;;;9.20;71.10;;;;;;4884452;29;20049;-80
2022/04/20 06:38:28;;;;;;;18.27;12.98;;;9.20;71.10;;;;;;4883601;29;20104;-81
2022/04/20 06:40:55;;;;;;;16.95;13.00;;;9.30;71.10;;;;;;4887033;29;20085;-80
2022/04/20 06:43:26;;;;;;;21.42;12.30;;;9.40;71.10;;;;;;4887609;29;20105;-80
2022/04/20 06:45:54;;;;;;;17.48;12.27;;;9.40;71.00;;;;;;4887725;29;20101;-81
2022/04/20 06:48:22;;;;;;;18.88;12.52;;;9.40;71.00;;;;;;4887054;29;20128;-81
2022/04/20 06:50:50;;;;;;;16.10;12.20;;;9.50;71.00;;;;;;4883028;29;20100;-82
2022/04/20 06:58:50;;;;;;;14.48;11.45;;;9.70;70.80;;;;;;4887340;29;20113;-81
2022/04/20 07:01:17;;;;;;;14.95;10.95;;;9.80;70.80;;;;;;4887298;29;20060;-80
2022/04/20 07:03:44;;;;;;;15.38;10.75;;;9.80;70.70;;;;;;4887289;29;20051;-82
2022/04/20 07:06:11;;;;;;;13.25;9.75;;;9.90;70.60;;;;;;4885302;29;20057;-83
2022/04/20 07:08:38;;;;;;;16.20;10.27;;;9.90;70.40;;;;;;4882874;29;20064;-81
2022/04/20 07:11:05;;;;;;;13.45;9.95;;;10.00;70.30;;;;;;4883364;29;20559;-81
2022/04/20 07:13:32;;;;;;;16.85;10.27;;;10.10;70.10;;;;;;4892659;29;20052;-81
2022/04/20 07:16:00;;;;;;;15.10;9.30;;;10.20;69.80;;;;;;4895505;29;20048;-81
2022/04/20 07:18:27;;;;;;;11.38;9.07;;;10.30;69.60;;;;;;4897989;29;20049;-80
2022/04/20 07:20:54;;;;;;;17.58;9.50;;;10.30;69.40;;;;;;4879140;29;20056;-80
2022/04/20 07:23:21;;;;;;;10.93;8.38;;;10.40;69.10;;;;;;4893287;29;20053;-82
2022/04/20 07:25:48;;;;;;;15.30;9.40;;;10.50;68.80;;;;;;4894944;29;20108;-81
2022/04/20 07:28:17;;;;;;;15.43;8.52;;;10.50;68.60;;;;;;4893545;29;20084;-79
2022/04/20 07:30:44;;;;;;;12.43;9.18;;;10.60;68.40;;;;;;4893681;29;20045;-81
2022/04/20 07:33:14;;;;;;;12.77;7.38;;;10.60;68.20;;;;;;4892827;29;20576;-81
2022/04/20 07:35:44;;;;;;;12.45;8.55;;;10.70;68.00;;;;;;4895006;29;20049;-81
2022/04/20 07:38:12;;;;;;;13.52;8.07;;;10.80;67.80;;;;;;4897277;29;20108;-81
2022/04/20 07:40:39;;;;;;;12.07;8.60;;;10.90;67.60;;;;;;4890402;29;20052;-81
2022/04/20 07:43:06;;;;;;;13.43;8.52;;;10.90;67.40;;;;;;4898640;29;20052;-80
2022/04/20 07:45:34;;;;;;;13.30;7.93;;;11.00;67.30;;;;;;4892710;29;20126;-80
2022/04/20 07:48:01;;;;;;;9.93;7.30;;;11.00;67.10;;;;;;4893491;29;20049;-80
2022/04/20 07:50:27;;;;;;;13.27;8.27;;;11.10;66.90;;;;;;4896378;29;20060;-80
2022/04/20 07:52:58;;;;;;;10.75;7.93;;;11.20;66.70;;;;;;4893894;29;20052;-80
2022/04/20 07:55:27;;;;;;;10.75;6.60;;;11.30;66.50;;;;;;4894386;29;20513;-80
2022/04/20 07:57:56;;;;;;;10.85;7.20;;;11.30;66.30;;;;;;4894917;29;20048;-80
2022/04/20 08:00:24;;;;;;;10.48;7.15;;;11.40;66.10;;;;;;4894249;29;20510;-80
2022/04/20 08:03:11;;;;;;;12.48;7.30;;;11.40;65.90;;;;;;4894530;29;20528;-80
2022/04/20 08:05:38;;;;;;;10.77;6.80;;;11.50;65.80;;;;;;4893125;29;20056;-80
2022/04/20 08:08:07;;;;;;;10.55;6.45;;;11.60;65.70;;;;;;4894630;29;20056;-80
2022/04/20 08:10:35;;;;;;;9.90;6.93;;;11.70;65.50;;;;;;4892859;29;20552;-80
2022/04/20 08:14:09;;;;;;;13.68;6.90;;;11.80;65.30;;;;;;4893008;29;20056;-80
2022/04/20 08:15:50;;;;;;;9.77;6.63;;;11.90;65.10;;;;;;4892977;29;20049;-80
2022/04/20 08:18:17;;;;;;;9.13;6.22;;;11.90;64.90;;;;;;4893178;29;20104;-80
2022/04/20 08:20:44;;;;;;;9.77;6.03;;;12.00;64.70;;;;;;4894572;29;20537;-80
2022/04/20 08:23:11;;;;;;;9.52;5.70;;;12.10;64.50;;;;;;4895042;29;20048;-80
2022/04/20 08:25:39;;;;;;;8.98;5.75;;;12.20;64.30;;;;;;4892943;29;20104;-80
2022/04/20 08:28:10;;;;;;;8.23;5.60;;;12.30;64.10;;;;;;4894236;29;20074;-80
2022/04/20 08:30:39;;;;;;;11.63;5.35;;;12.40;63.90;;;;;;4893806;29;20105;-80
2022/04/20 08:33:08;;;;;;;13.45;5.60;;;12.50;63.60;;;;;;4894779;29;20080;-80
2022/04/20 08:35:36;;;;;;;9.02;5.75;;;12.60;63.40;;;;;;4895134;29;20057;-79
2022/04/20 08:38:04;;;;;;;7.13;5.03;;;12.70;63.10;;;;;;4895882;29;20060;-80
2022/04/20 08:40:33;;;;;;;7.75;5.75;;;12.80;62.80;;;;;;4892558;29;20524;-80
2022/04/20 08:43:01;;;;;;;7.72;5.22;;;12.90;62.60;;;;;;4892482;29;20056;-80
2022/04/20 08:45:29;;;;;;;10.32;5.15;;;12.90;62.30;;;;;;4895155;29;20052;-80
2022/04/20 08:47:59;;;;;;;8.60;4.85;;;13.10;61.90;;;;;;4896145;29;20044;-81
2022/04/20 08:50:26;;;;;;;7.03;5.10;;;13.10;61.70;;;;;;4899823;29;20060;-80
2022/04/20 08:52:55;;;;;;;9.77;4.60;;;13.20;61.30;;;;;;4897595;29;20105;-80
2022/04/20 08:55:22;;;;;;;7.82;4.68;;;13.40;61.00;;;;;;4898210;29;20061;-80
2022/04/20 08:57:52;;;;;;;6.90;4.22;;;13.50;60.60;;;;;;4896418;29;20092;-80
2022/04/20 09:00:25;;;;;;;7.60;3.92;;;13.60;60.30;;;;;;4897762;29;20045;-80
2022/04/20 09:02:55;;;;;;;6.77;4.40;;;13.60;59.90;;;;;;4898009;29;20049;-80
2022/04/20 09:05:24;;;;;;;7.18;3.70;;;13.80;59.50;;;;;;4896130;29;20048;-80
2022/04/20 09:07:52;;;;;;;5.72;3.67;;;13.90;59.20;;;;;;4897735;29;20135;-80
2022/04/20 09:10:20;;;;;;;6.55;3.53;;;13.90;58.80;;;;;;4896357;29;20056;-80
2022/04/20 09:13:11;;;;;;;5.88;3.70;;;14.10;58.40;;;;;;4897401;29;20049;-80
2022/04/20 09:15:40;;;;;;;6.78;3.95;;;14.20;57.90;;;;;;4896419;29;20055;-81
2022/04/20 09:18:10;;;;;;;6.10;3.50;;;14.20;57.50;;;;;;4897507;29;20048;-81
2022/04/20 09:20:38;;;;;;;7.65;4.10;;;14.40;57.20;;;;;;4897488;29;20048;-81
2022/04/20 09:23:08;;;;;;;5.90;3.42;;;14.40;56.70;;;;;;4898209;29;20053;-81
2022/04/20 09:25:48;;;;;;;6.95;3.03;;;14.50;56.40;;;;;;4897549;29;20108;-81
2022/04/20 09:28:14;;;;;;;6.53;3.28;;;14.60;56.00;;;;;;4895613;29;20053;-81
2022/04/20 09:30:42;;;;;;;7.70;3.58;;;14.70;55.70;;;;;;4896080;29;20089;-81
2022/04/20 09:33:10;;;;;;;6.72;2.95;;;14.80;55.40;;;;;;4897518;29;20056;-81
2022/04/20 09:35:46;;;;;;;7.90;3.40;;;14.90;55.10;;;;;;4897852;29;20049;-81
2022/04/20 09:38:16;;;;;;;5.60;2.95;;;14.90;54.80;;;;;;4898787;29;20056;-80
2022/04/20 09:40:43;;;;;;;5.18;2.88;;;15.00;54.60;;;;;;4895566;29;20577;-81
2022/04/20 09:43:15;;;;;;;6.15;3.05;;;15.10;54.30;;;;;;4895725;29;20052;-80
2022/04/20 09:45:42;;;;;;;5.32;3.10;;;15.20;54.10;;;;;;4895687;29;20577;-81
2022/04/20 09:51:13;;;;;;;7.00;3.17;;;15.40;53.70;;;;;;4883574;29;20097;-81
2022/04/20 09:53:46;;;;;;;7.95;3.20;;;15.50;53.50;;;;;;4897843;29;20395;-80
2022/04/20 09:56:17;;;;;;;5.67;3.23;;;15.60;53.30;;;;;;4897483;29;20053;-81
2022/04/20 09:58:45;;;;;;;5.65;3.28;;;15.70;53.10;;;;;;4895594;29;20056;-81
2022/04/20 10:01:27;;;;;;;10.15;3.78;;;15.80;52.80;;;;;;4896749;29;20057;-81
2022/04/20 10:03:55;;;;;;;18.20;4.20;;;15.90;52.60;;;;;;4895073;29;20049;-81
2022/04/20 10:06:22;;;;;;;7.35;3.78;;;16.00;52.40;;;;;;4895304;29;20047;-81
2022/04/20 10:08:50;;;;;;;6.72;3.85;;;16.10;52.20;;;;;;4896421;29;20052;-81
2022/04/20 10:11:21;;;;;;;7.10;3.97;;;16.20;51.90;;;;;;4898677;29;20108;-81
2022/04/20 10:16:05;;;;;;;7.38;3.63;;;16.30;51.70;;;;;;4894822;29;20060;-81
2022/04/20 10:16:44;;;;;;;8.20;4.05;;;16.30;51.60;;;;;;4895130;29;20048;-81
2022/04/20 10:19:13;;;;;;;10.45;3.65;;;16.40;51.40;;;;;;4894728;29;20052;-80
2022/04/20 10:21:52;;;;;;;6.40;3.78;;;16.50;51.20;;;;;;4894951;29;20498;-81
2022/04/20 10:24:29;;;;;;;5.95;3.50;;;16.60;51.00;;;;;;4895067;29;20513;-81
2022/04/20 10:27:03;;;;;;;6.47;3.55;;;16.70;50.80;;;;;;4880421;29;20049;-80
2022/04/20 10:29:36;;;;;;;;;;;16.70;50.60;;;;;;4898207;29;20068;-80
2022/04/20 10:32:23;;;;;;;6.47;3.78;;;16.80;50.50;;;;;;4898106;29;20337;-81
2022/04/20 10:34:52;;;;;;;7.65;3.60;;;16.90;50.20;;;;;;4895051;29;20521;-81
2022/04/20 10:37:28;;;;;;;8.38;3.78;;;16.90;50.10;;;;;;4894686;29;20060;-80
2022/04/20 10:40:16;;;;;;;11.30;3.65;;;17.00;49.90;;;;;;4887712;29;20422;-80
2022/04/20 10:43:23;;;;;;;7.80;3.20;;;17.10;49.70;;;;;;4894403;29;20052;-80
2022/04/20 10:46:03;;;;;;;7.30;3.35;;;17.20;49.50;;;;;;4894087;29;20139;-80
2022/04/20 10:49:01;;;;;;;7.43;3.65;;;17.30;49.30;;;;;;4895278;29;20049;-80
2022/04/20 10:51:32;;;;;;;8.35;3.55;;;17.40;49.00;;;;;;4894330;29;20102;-80
2022/04/20 10:54:20;;;;;;;8.82;3.97;;;17.40;48.80;;;;;;4896045;29;20083;-81
2022/04/20 10:57:02;;;;;;;5.93;3.60;;;17.50;48.40;;;;;;4895616;29;20101;-80
2022/04/20 10:59:29;;;;;;;8.13;3.70;;;17.60;48.20;;;;;;4894088;29;20056;-80
2022/04/20 11:01:58;;;;;;;8.40;3.50;;;17.50;48.00;;;;;;4896266;29;20052;-81
2022/04/20 11:04:46;;;;;;;5.97;3.20;;;17.60;47.80;;;;;;4897268;29;20067;-80
2022/04/20 11:07:26;;;;;;;5.45;3.60;;;17.70;47.50;;;;;;4898029;29;20537;-80
2022/04/20 11:10:08;;;;;;;4.90;2.80;;;17.80;47.40;;;;;;4895489;29;20135;-81
2022/04/20 11:18:38;;;;;;;10.00;3.85;;;17.90;46.90;;;;;;4883095;29;20490;-80
2022/04/20 11:21:11;;;;;;;6.28;3.05;;;17.90;46.60;;;;;;4880318;29;20416;-80
2022/04/20 11:24:01;;;;;;;8.40;3.00;;;18.00;46.40;;;;;;4895978;29;20124;-81
2022/04/20 11:26:39;;;;;;;5.97;2.92;;;18.10;46.20;;;;;;4893510;29;20289;-80
2022/04/20 11:29:23;;;;;;;6.85;3.72;;;18.10;46.10;;;;;;4895695;29;20052;-80
2022/04/20 11:31:58;;;;;;;8.15;3.92;;;18.20;45.90;;;;;;4895243;29;20049;-80
2022/04/20 11:34:28;;;;;;;6.32;3.30;;;18.20;45.80;;;;;;4893489;29;20109;-80
2022/04/20 11:37:00;;;;;;;6.40;3.05;;;18.30;45.60;;;;;;4895059;29;20488;-80
2022/04/20 11:39:28;;;;;;;4.93;2.80;;;18.30;45.50;;;;;;4894036;29;20052;-80
2022/04/20 11:41:59;;;;;;;12.27;3.22;;;18.40;45.40;;;;;;4878958;29;20577;-81
2022/04/20 11:44:27;;;;;;;6.50;3.03;;;18.40;45.30;;;;;;4893463;29;20060;-80
2022/04/20 11:47:01;;;;;;;7.03;2.92;;;18.40;45.20;;;;;;4894598;29;20056;-80
2022/04/20 11:49:49;;;;;;;6.05;2.90;;;18.40;45.10;;;;;;4895187;29;20461;-80
2022/04/20 11:52:18;;;;;;;6.10;2.88;;;18.50;45.00;;;;;;4893408;29;20510;-79
2022/04/20 11:54:46;;;;;;;7.35;2.75;;;18.60;45.00;;;;;;4893422;29;20060;-80
2022/04/20 11:57:15;;;;;;;10.07;3.17;;;18.60;44.80;;;;;;4893574;29;20053;-80
2022/04/20 11:59:47;;;;;;;5.00;3.05;;;18.70;44.80;;;;;;4894771;29;20066;-80
2022/04/20 12:02:16;;;;;;;7.95;2.88;;;18.70;44.60;;;;;;4896450;29;20048;-80
2022/04/20 12:04:43;;;;;;;5.65;2.85;;;18.80;44.40;;;;;;4893295;29;20080;-80
2022/04/20 12:07:10;;;;;;;5.72;2.83;;;18.80;44.20;;;;;;4892323;29;20053;-80
2022/04/20 12:09:40;;;;;;;4.68;2.50;;;18.90;44.00;;;;;;4902394;29;20044;-79
2022/04/20 12:12:10;;;;;;;5.55;2.53;;;18.90;43.90;;;;;;4893312;29;20549;-80
2022/04/20 12:14:43;;;;;;;5.28;2.30;;;19.00;43.80;;;;;;4894768;29;20071;-80
2022/04/20 12:17:16;;;;;;;4.28;2.30;;;19.00;43.70;;;;;;4895638;29;20100;-80
2022/04/20 12:19:44;;;;;;;7.00;2.58;;;19.00;43.50;;;;;;4892851;29;20078;-80
2022/04/20 12:22:13;;;;;;;6.88;2.80;;;19.10;43.40;;;;;;4893686;29;20063;-80
2022/04/20 12:24:43;;;;;;;7.35;2.60;;;19.10;43.30;;;;;;4893005;29;20450;-80
2022/04/20 12:27:21;;;;;;;4.90;2.15;;;19.10;43.10;;;;;;4892495;29;20060;-80
2022/04/20 12:29:57;;;;;;;8.20;2.65;;;19.20;42.90;;;;;;4894495;29;20056;-80
2022/04/20 12:32:32;;;;;;;7.30;2.35;;;19.20;42.80;;;;;;4893476;29;20052;-82
2022/04/20 12:35:01;;;;;;;7.57;2.28;;;19.20;42.60;;;;;;4894072;29;20052;-80
2022/04/20 12:37:29;;;;;;;5.70;2.58;;;19.20;42.50;;;;;;4894484;29;20053;-81
2022/04/20 12:39:58;;;;;;;6.93;2.63;;;19.30;42.50;;;;;;4894457;29;20422;-80
2022/04/20 12:42:25;;;;;;;7.43;2.30;;;19.30;42.50;;;;;;4892587;29;20048;-81
2022/04/20 12:44:53;;;;;;;5.53;2.08;;;19.30;42.40;;;;;;4893610;29;20049;-80
2022/04/20 12:47:21;;;;;;;5.63;2.50;;;19.30;42.40;;;;;;4896766;29;20052;-81
2022/04/20 12:50:07;;;;;;;5.53;2.42;;;19.30;42.40;;;;;;4894535;29;20052;-79
2022/04/20 12:52:34;;;;;;;7.57;2.42;;;19.40;42.40;;;;;;4894236;29;20052;-80
2022/04/20 12:55:08;;;;;;;9.55;2.17;;;19.40;42.40;;;;;;4892993;29;20044;-80
2022/04/20 13:03:16;;;;;;;5.00;2.30;;;19.40;42.50;;;;;;4886492;29;20053;-80
2022/04/20 13:05:44;;;;;;;7.67;2.70;;;19.40;42.60;;;;;;4894638;29;20056;-81
2022/04/20 13:08:14;;;;;;;5.43;2.40;;;19.40;42.50;;;;;;4895193;29;20293;-80
2022/04/20 13:10:43;;;;;;;5.53;2.47;;;19.40;42.40;;;;;;4894008;29;20048;-80
2022/04/20 13:13:10;;;;;;;5.05;2.28;;;19.40;42.40;;;;;;4891995;29;20112;-80
2022/04/20 13:15:37;;;;;;;4.63;2.30;;;19.50;42.30;;;;;;4892337;29;20475;-80